Time;durP1;ratioP1;P1;durP2;ratioP2;P2;SDS_P1;SDS_P2;PMS_P1;PMS_P2;Temp;Humidity;BMP_temperature;BMP_pressure;BME280_temperature;BME280_humidity;BME280_pressure;Samples;Min_cycle;Max_cycle;Signal;HPM_P1;HPM_P2
2021/06/27 00:02:24;;;;;;;4.00;3.70;;;22.30;99.90;;;;;;6274092;28;20314;-69
2021/06/27 00:05:30;;;;;;;5.03;4.53;;;22.30;99.90;;;;;;6273733;28;20258;-63
2021/06/27 00:08:33;;;;;;;3.87;3.57;;;22.20;99.90;;;;;;6273934;28;20227;-64
2021/06/27 00:11:38;;;;;;;3.97;3.77;;;22.20;99.90;;;;;;6273479;28;20687;-62
2021/06/27 00:14:41;;;;;;;4.00;3.70;;;22.20;99.90;;;;;;6274180;28;20230;-64
2021/06/27 00:17:45;;;;;;;4.50;4.10;;;22.20;99.90;;;;;;6263906;28;20243;-71
2021/06/27 00:20:50;;;;;;;3.90;3.63;;;22.20;99.90;;;;;;6273908;28;20242;-71
2021/06/27 00:23:54;;;;;;;4.60;4.20;;;22.20;99.90;;;;;;6273473;28;20228;-69
2021/06/27 00:26:58;;;;;;;4.23;3.93;;;22.20;99.90;;;;;;6274001;28;20242;-71
2021/06/27 00:30:02;;;;;;;4.60;4.20;;;22.20;99.90;;;;;;6275956;28;20668;-63
2021/06/27 00:33:06;;;;;;;4.07;3.77;;;22.20;99.90;;;;;;6278517;28;20242;-63
2021/06/27 00:36:10;;;;;;;3.87;3.60;;;22.20;99.90;;;;;;6278815;28;20231;-71
2021/06/27 00:39:13;;;;;;;4.60;4.17;;;22.10;99.90;;;;;;6278357;28;20232;-61
2021/06/27 00:42:18;;;;;;;4.13;3.83;;;22.10;99.90;;;;;;6278502;28;20224;-69
2021/06/27 00:45:23;;;;;;;4.00;3.53;;;21.90;99.90;;;;;;6278261;28;20234;-69
2021/06/27 00:48:27;;;;;;;4.40;4.10;;;21.90;99.90;;;;;;6277992;28;20239;-64
2021/06/27 00:51:30;;;;;;;4.67;4.27;;;21.90;99.90;;;;;;6277532;28;20235;-64
2021/06/27 00:54:33;;;;;;;4.70;4.30;;;21.80;99.90;;;;;;6277965;28;20567;-63
2021/06/27 00:57:38;;;;;;;3.67;3.37;;;21.80;99.90;;;;;;6277599;28;20246;-69
2021/06/27 01:00:44;;;;;;;5.70;3.90;;;21.80;99.90;;;;;;6278075;28;20247;-64
2021/06/27 01:03:47;;;;;;;4.97;4.57;;;21.80;99.90;;;;;;6277467;28;20223;-64
2021/06/27 01:06:50;;;;;;;4.50;4.10;;;21.70;99.90;;;;;;6277959;28;20249;-69
2021/06/27 01:09:53;;;;;;;6.33;4.90;;;21.80;99.90;;;;;;6277371;28;20247;-69
2021/06/27 01:12:59;;;;;;;3.97;3.70;;;21.90;99.90;;;;;;6277874;28;20224;-64
2021/06/27 01:16:02;;;;;;;4.53;4.13;;;21.80;99.90;;;;;;6277500;28;20302;-63
2021/06/27 01:19:06;;;;;;;5.27;4.77;;;21.80;99.90;;;;;;6277279;28;20232;-63
2021/06/27 01:22:10;;;;;;;4.57;4.03;;;21.60;99.90;;;;;;6268730;28;20231;-69
2021/06/27 01:25:15;;;;;;;4.67;3.93;;;21.40;99.90;;;;;;6277403;28;20703;-69
2021/06/27 01:28:20;;;;;;;4.40;4.00;;;21.30;99.90;;;;;;6277281;28;20231;-71
2021/06/27 01:31:24;;;;;;;5.00;4.60;;;21.30;99.90;;;;;;6276910;28;20242;-62
2021/06/27 01:34:28;;;;;;;9.83;5.07;;;21.40;99.90;;;;;;6276901;28;20224;-69
2021/06/27 01:37:32;;;;;;;4.87;4.47;;;21.40;99.90;;;;;;6276753;28;20210;-69
2021/06/27 01:40:36;;;;;;;5.30;4.73;;;21.30;99.90;;;;;;6277029;28;20231;-69
2021/06/27 01:43:40;;;;;;;5.40;4.67;;;21.30;99.90;;;;;;6277061;28;20214;-70
2021/06/27 01:46:43;;;;;;;6.70;5.03;;;21.10;99.90;;;;;;6276774;28;20211;-69
2021/06/27 01:49:46;;;;;;;4.90;4.40;;;21.20;99.90;;;;;;6276533;28;20227;-69
2021/06/27 01:52:52;;;;;;;5.53;4.63;;;21.20;99.90;;;;;;6276490;28;20231;-69
2021/06/27 01:56:06;;;;;;;4.90;4.50;;;20.90;99.90;;;;;;6276788;28;20223;-69
2021/06/27 01:59:09;;;;;;;5.00;4.40;;;20.60;99.90;;;;;;6276876;28;20246;-69
2021/06/27 02:02:12;;;;;;;6.20;4.70;;;20.50;99.90;;;;;;6275936;28;20227;-69
2021/06/27 02:05:16;;;;;;;4.77;4.37;;;20.60;99.90;;;;;;6276638;28;20561;-70
2021/06/27 02:08:20;;;;;;;4.60;3.70;;;20.50;99.90;;;;;;6276467;28;20246;-69
2021/06/27 02:11:25;;;;;;;4.87;3.40;;;20.60;99.90;;;;;;6276588;28;20228;-70
2021/06/27 02:14:28;;;;;;;4.43;4.03;;;20.60;99.90;;;;;;6276427;28;20231;-69
2021/06/27 02:17:31;;;;;;;4.50;4.10;;;20.60;99.90;;;;;;6276158;28;20246;-69
2021/06/27 02:20:35;;;;;;;3.67;3.10;;;20.60;99.90;;;;;;6276479;28;20227;-69
2021/06/27 02:23:41;;;;;;;3.43;3.13;;;20.70;99.90;;;;;;6271513;28;20231;-70
2021/06/27 02:26:45;;;;;;;2.60;2.40;;;20.80;99.90;;;;;;6276032;28;20575;-70
2021/06/27 02:29:48;;;;;;;3.60;3.30;;;20.90;99.90;;;;;;6275442;28;20231;-70
2021/06/27 02:32:51;;;;;;;3.97;2.90;;;20.90;99.90;;;;;;6275738;28;20223;-69
2021/06/27 02:35:55;;;;;;;3.27;2.97;;;20.90;99.90;;;;;;6275480;28;20608;-69
2021/06/27 02:39:00;;;;;;;2.93;2.73;;;20.90;99.90;;;;;;6275703;28;20235;-69
2021/06/27 02:42:03;;;;;;;10.03;2.80;;;20.80;99.90;;;;;;6275319;28;20684;-69
2021/06/27 02:45:09;;;;;;;3.00;2.80;;;20.70;99.90;;;;;;6275548;28;20231;-69
2021/06/27 02:48:12;;;;;;;4.93;2.70;;;20.60;99.90;;;;;;6275037;28;20227;-69
2021/06/27 02:51:16;;;;;;;3.07;2.77;;;20.50;99.90;;;;;;6275453;28;20258;-69
2021/06/27 02:54:21;;;;;;;5.63;3.60;;;20.30;99.90;;;;;;6274467;28;20231;-69
2021/06/27 02:57:24;;;;;;;3.03;2.83;;;20.30;99.90;;;;;;6275401;28;20227;-69
2021/06/27 03:00:29;;;;;;;3.30;2.30;;;20.40;99.90;;;;;;6275228;28;20235;-69
2021/06/27 03:03:33;;;;;;;2.60;2.40;;;20.40;99.90;;;;;;6275098;28;20246;-69
2021/06/27 03:06:36;;;;;;;2.97;2.60;;;20.40;99.90;;;;;;6275158;28;20227;-69
2021/06/27 03:09:41;;;;;;;2.70;2.50;;;20.40;99.90;;;;;;6274809;28;20227;-69
2021/06/27 03:12:47;;;;;;;4.20;2.67;;;20.40;99.90;;;;;;6274846;28;20232;-69
2021/06/27 03:15:52;;;;;;;2.30;2.10;;;20.40;99.90;;;;;;6274576;28;20231;-69
2021/06/27 03:18:55;;;;;;;3.60;2.37;;;20.50;99.90;;;;;;6273502;28;20282;-69
2021/06/27 03:21:58;;;;;;;2.33;2.13;;;20.50;99.90;;;;;;6274691;28;20231;-69
2021/06/27 03:25:04;;;;;;;4.73;3.07;;;20.60;99.90;;;;;;6275122;28;20223;-68
2021/06/27 03:28:07;;;;;;;2.90;2.70;;;20.60;99.90;;;;;;6274670;28;20230;-69
2021/06/27 03:31:10;;;;;;;2.80;2.40;;;20.50;99.90;;;;;;6274503;28;20323;-68
2021/06/27 03:34:13;;;;;;;2.60;2.40;;;20.60;99.90;;;;;;6274194;28;20317;-69
2021/06/27 03:37:17;;;;;;;3.43;2.90;;;20.60;99.90;;;;;;6274723;28;20238;-68
2021/06/27 03:40:21;;;;;;;3.33;2.80;;;20.50;99.90;;;;;;6274215;28;20262;-69
2021/06/27 03:43:25;;;;;;;3.80;2.53;;;20.60;99.90;;;;;;6274232;28;20224;-69
2021/06/27 03:46:28;;;;;;;3.23;2.90;;;20.40;99.90;;;;;;6273872;28;20246;-69
2021/06/27 03:49:31;;;;;;;2.93;2.23;;;20.30;99.90;;;;;;6274613;28;20227;-70
2021/06/27 03:52:34;;;;;;;3.10;2.90;;;20.30;99.90;;;;;;6274477;28;20235;-69
2021/06/27 03:55:39;;;;;;;3.00;2.80;;;20.20;99.90;;;;;;6274256;28;20234;-69
2021/06/27 03:58:42;;;;;;;3.07;2.87;;;20.30;99.90;;;;;;6274742;28;20228;-70
2021/06/27 04:01:45;;;;;;;3.93;3.07;;;20.30;99.90;;;;;;6274833;28;20207;-70
2021/06/27 04:04:49;;;;;;;3.30;3.10;;;20.50;99.90;;;;;;6276394;28;20223;-70
2021/06/27 04:07:52;;;;;;;5.53;3.27;;;20.60;99.90;;;;;;6278962;28;20223;-70
2021/06/27 04:10:58;;;;;;;3.60;3.30;;;20.60;99.90;;;;;;6279622;28;20238;-70
2021/06/27 04:14:01;;;;;;;4.97;3.70;;;20.60;99.90;;;;;;6279289;28;20238;-70
2021/06/27 04:17:05;;;;;;;4.20;3.77;;;20.50;99.90;;;;;;6278892;28;20243;-70
2021/06/27 04:20:10;;;;;;;4.30;3.90;;;20.30;99.90;;;;;;6278870;28;20238;-70
2021/06/27 04:23:13;;;;;;;3.90;3.50;;;20.20;99.90;;;;;;6279303;28;20224;-70
2021/06/27 04:26:18;;;;;;;3.83;3.43;;;20.20;99.90;;;;;;6278674;28;20561;-70
2021/06/27 04:29:21;;;;;;;3.53;3.10;;;20.20;99.90;;;;;;6279028;28;20239;-70
2021/06/27 04:32:25;;;;;;;2.87;2.67;;;20.20;99.90;;;;;;6278479;28;20556;-70
2021/06/27 04:35:28;;;;;;;3.87;3.57;;;20.30;99.90;;;;;;6278632;28;20323;-70
2021/06/27 04:38:32;;;;;;;3.47;3.03;;;20.30;99.90;;;;;;6278753;28;20246;-70
2021/06/27 04:41:36;;;;;;;2.57;2.37;;;20.30;99.90;;;;;;6278406;28;20570;-70
2021/06/27 04:44:39;;;;;;;2.90;2.70;;;20.40;99.90;;;;;;6278843;28;20235;-70
2021/06/27 04:47:43;;;;;;;4.13;2.90;;;20.50;99.90;;;;;;6278183;28;20666;-70
2021/06/27 04:50:47;;;;;;;4.03;2.83;;;20.70;99.90;;;;;;6278238;28;20236;-70
2021/06/27 04:53:50;;;;;;;3.33;3.03;;;20.70;99.90;;;;;;6278038;28;20235;-70
2021/06/27 04:56:55;;;;;;;5.00;3.87;;;20.70;99.90;;;;;;6278289;28;20254;-70
2021/06/27 04:59:58;;;;;;;3.50;3.20;;;20.90;99.90;;;;;;6277796;28;20266;-70
2021/06/27 05:03:01;;;;;;;4.07;3.77;;;21.10;99.90;;;;;;6278042;28;20228;-70
2021/06/27 05:06:05;;;;;;;4.13;3.57;;;21.30;99.90;;;;;;6278074;28;20254;-70
2021/06/27 05:09:08;;;;;;;3.03;2.83;;;21.40;99.90;;;;;;6277966;28;20582;-70
2021/06/27 05:12:13;;;;;;;3.63;2.80;;;21.50;99.90;;;;;;6277904;28;20239;-70
2021/06/27 05:15:16;;;;;;;3.40;2.80;;;21.50;99.90;;;;;;6277102;28;20243;-70
2021/06/27 05:18:20;;;;;;;4.03;2.60;;;21.50;99.90;;;;;;6277247;28;20726;-70
2021/06/27 05:21:23;;;;;;;3.43;3.23;;;21.50;99.90;;;;;;6277460;28;20234;-70
2021/06/27 05:24:26;;;;;;;5.13;2.93;;;21.50;99.90;;;;;;6277682;28;20238;-71
2021/06/27 05:27:31;;;;;;;2.87;2.67;;;21.60;99.90;;;;;;6277433;28;20258;-69
2021/06/27 05:30:34;;;;;;;3.10;2.67;;;21.80;99.90;;;;;;6277257;28;20659;-70
2021/06/27 05:33:38;;;;;;;2.80;2.53;;;22.10;99.90;;;;;;6277288;28;20231;-69
2021/06/27 05:36:41;;;;;;;2.97;2.77;;;22.30;99.90;;;;;;6272816;28;20235;-69
2021/06/27 05:39:45;;;;;;;2.47;2.27;;;22.50;99.90;;;;;;6276761;28;20369;-69
2021/06/27 05:42:49;;;;;;;2.30;2.10;;;22.70;99.90;;;;;;6277252;28;20223;-69
2021/06/27 05:45:52;;;;;;;3.40;2.50;;;22.80;99.90;;;;;;6276916;28;20223;-69
2021/06/27 05:48:56;;;;;;;2.63;2.23;;;23.00;99.90;;;;;;6276909;28;20285;-69
2021/06/27 05:51:59;;;;;;;2.47;2.27;;;23.20;99.90;;;;;;6276519;28;20698;-68
2021/06/27 05:55:02;;;;;;;5.47;2.60;;;23.20;99.90;;;;;;6276844;28;20231;-69
2021/06/27 05:58:07;;;;;;;2.93;2.43;;;23.20;99.90;;;;;;6276603;28;20239;-70
2021/06/27 06:01:12;;;;;;;2.87;2.67;;;23.30;99.90;;;;;;6276538;28;20231;-69
2021/06/27 06:04:15;;;;;;;2.63;2.43;;;23.30;99.90;;;;;;6276456;28;20231;-69
2021/06/27 06:07:19;;;;;;;3.40;2.43;;;23.20;99.90;;;;;;6275937;28;20250;-70
2021/06/27 06:10:23;;;;;;;2.97;2.67;;;23.50;99.90;;;;;;6276504;28;20246;-69
2021/06/27 06:13:28;;;;;;;1.87;1.77;;;23.70;99.90;;;;;;6275966;28;20238;-69
2021/06/27 06:16:46;;;;;;;2.90;2.70;;;23.80;99.00;;;;;;6276430;28;20306;-69
2021/06/27 06:19:50;;;;;;;2.37;2.17;;;24.10;99.10;;;;;;6275373;28;20749;-69
2021/06/27 06:22:55;;;;;;;2.10;2.00;;;24.40;98.60;;;;;;6276523;28;20223;-69
2021/06/27 06:25:58;;;;;;;2.90;2.00;;;24.80;98.30;;;;;;6276185;28;20551;-70
2021/06/27 06:29:03;;;;;;;2.43;2.23;;;25.40;97.40;;;;;;6275309;28;20566;-69
2021/06/27 06:32:07;;;;;;;2.00;1.90;;;25.90;96.40;;;;;;6275569;28;20570;-69
2021/06/27 06:35:11;;;;;;;2.43;2.23;;;26.40;95.30;;;;;;6275997;28;20245;-70
2021/06/27 06:38:14;;;;;;;2.37;2.20;;;26.90;93.90;;;;;;6275743;28;20229;-70
2021/06/27 06:41:18;;;;;;;2.50;2.30;;;27.60;91.20;;;;;;6265896;28;20234;-70
2021/06/27 06:44:22;;;;;;;2.30;2.10;;;28.10;90.00;;;;;;6273054;28;20576;-70
2021/06/27 06:47:26;;;;;;;1.73;1.63;;;28.40;88.80;;;;;;6273502;28;20227;-70
2021/06/27 06:50:29;;;;;;;2.10;1.90;;;28.70;86.10;;;;;;6273270;28;20234;-69
2021/06/27 06:53:33;;;;;;;4.23;2.43;;;29.30;83.50;;;;;;6273597;28;20320;-69
2021/06/27 06:56:36;;;;;;;2.63;2.17;;;29.90;80.20;;;;;;6274067;28;20230;-69
2021/06/27 06:59:41;;;;;;;3.50;2.30;;;30.50;78.30;;;;;;6275465;28;20241;-71
2021/06/27 07:02:44;;;;;;;2.17;1.97;;;30.60;75.10;;;;;;6275276;28;20226;-69
2021/06/27 07:05:47;;;;;;;2.40;2.07;;;30.90;73.50;;;;;;6275043;28;20230;-68
2021/06/27 07:08:50;;;;;;;2.20;2.00;;;31.30;72.20;;;;;;6275459;28;20241;-69
2021/06/27 07:11:53;;;;;;;2.00;1.85;;;31.50;70.30;;;;;;6275792;28;20227;-70
2021/06/27 07:14:58;;;;;;;2.00;1.90;;;32.10;69.40;;;;;;6275016;28;20243;-70
2021/06/27 07:18:02;;;;;;;2.50;2.30;;;32.60;66.90;;;;;;6274506;28;20227;-69
2021/06/27 07:21:05;;;;;;;2.03;1.90;;;32.90;64.70;;;;;;6275010;28;20572;-69
2021/06/27 07:24:09;;;;;;;2.47;2.28;;;33.10;60.00;;;;;;6274717;28;20222;-70
2021/06/27 07:27:12;;;;;;;2.58;1.73;;;33.40;58.40;;;;;;6275067;28;20572;-70
2021/06/27 07:30:17;;;;;;;2.38;1.77;;;33.90;56.00;;;;;;6274576;28;20246;-70
2021/06/27 07:33:20;;;;;;;1.95;1.75;;;34.50;54.90;;;;;;6275002;28;20246;-69
2021/06/27 07:36:23;;;;;;;4.20;2.10;;;34.70;55.00;;;;;;6274679;28;20227;-70
2021/06/27 07:39:27;;;;;;;2.60;2.40;;;35.20;53.40;;;;;;6274330;28;20237;-70
2021/06/27 07:42:30;;;;;;;2.13;1.70;;;35.40;51.30;;;;;;6274631;28;20248;-70
2021/06/27 07:45:35;;;;;;;2.20;2.00;;;35.30;51.70;;;;;;6274461;28;20565;-69
2021/06/27 07:48:38;;;;;;;4.93;2.42;;;35.00;53.00;;;;;;6274886;28;20255;-69
2021/06/27 07:51:41;;;;;;;2.45;2.35;;;34.60;54.30;;;;;;6274637;28;20233;-69
2021/06/27 07:54:45;;;;;;;2.30;2.20;;;34.20;54.80;;;;;;6274402;28;20247;-70
2021/06/27 07:57:48;;;;;;;2.90;2.70;;;33.20;57.10;;;;;;6273866;28;20231;-69
2021/06/27 08:00:53;;;;;;;3.20;2.80;;;32.80;58.50;;;;;;6274520;28;20230;-69
2021/06/27 08:03:56;;;;;;;2.92;2.70;;;32.40;59.10;;;;;;6273919;28;20235;-71
2021/06/27 08:06:59;;;;;;;3.00;2.70;;;32.00;59.60;;;;;;6274442;28;20222;-69
2021/06/27 08:10:03;;;;;;;3.13;2.70;;;31.80;60.90;;;;;;6273812;28;20239;-69
2021/06/27 08:13:06;;;;;;;3.08;2.85;;;31.20;60.90;;;;;;6274593;28;20241;-69
2021/06/27 08:16:10;;;;;;;2.47;2.33;;;30.80;62.10;;;;;;6274181;28;20307;-70
2021/06/27 08:19:14;;;;;;;2.97;2.57;;;30.20;62.60;;;;;;6275210;28;20698;-71
2021/06/27 08:22:17;;;;;;;4.10;2.30;;;29.90;64.20;;;;;;6272308;28;20230;-69
2021/06/27 08:25:21;;;;;;;4.00;2.30;;;29.60;65.70;;;;;;6271508;28;20558;-70
2021/06/27 08:28:24;;;;;;;2.80;2.60;;;29.40;64.80;;;;;;6271745;28;20242;-70
2021/06/27 08:31:29;;;;;;;1.93;1.50;;;29.20;64.50;;;;;;6271793;28;20231;-68
2021/06/27 08:34:33;;;;;;;2.20;2.00;;;29.00;63.60;;;;;;6272177;28;20223;-68
2021/06/27 08:37:36;;;;;;;2.97;2.77;;;28.90;64.70;;;;;;6273321;28;20234;-69
2021/06/27 08:40:39;;;;;;;3.00;2.17;;;28.70;66.70;;;;;;6273765;28;20218;-68
2021/06/27 08:43:44;;;;;;;2.23;2.13;;;28.60;66.00;;;;;;6273485;28;20214;-70
2021/06/27 08:46:50;;;;;;;2.40;2.20;;;28.80;66.80;;;;;;6269202;28;20203;-71
2021/06/27 08:49:53;;;;;;;2.80;2.40;;;28.70;66.90;;;;;;6273612;28;20305;-70
2021/06/27 08:52:57;;;;;;;2.50;2.07;;;28.80;66.20;;;;;;6278133;28;20227;-71
2021/06/27 08:56:08;;;;;;;2.20;2.10;;;28.70;67.20;;;;;;6278291;28;20226;-71
2021/06/27 08:59:11;;;;;;;2.93;2.60;;;28.80;67.00;;;;;;6278174;28;20583;-69
2021/06/27 09:02:15;;;;;;;2.17;2.00;;;29.00;65.50;;;;;;6277831;28;20231;-64
2021/06/27 09:05:20;;;;;;;2.40;2.20;;;29.00;65.50;;;;;;6278404;28;20231;-65
2021/06/27 09:08:23;;;;;;;2.67;2.47;;;29.10;65.30;;;;;;6277804;28;20227;-65
2021/06/27 09:11:27;;;;;;;3.70;1.90;;;29.10;66.10;;;;;;6276163;28;20325;-66
2021/06/27 09:14:34;;;;;;;2.10;1.90;;;29.10;65.80;;;;;;6277545;28;20230;-65
2021/06/27 09:17:42;;;;;;;2.47;2.27;;;29.20;64.80;;;;;;6277391;28;20231;-65
2021/06/27 09:20:46;;;;;;;2.67;1.70;;;29.40;63.80;;;;;;6278233;28;20234;-65
2021/06/27 09:23:51;;;;;;;1.93;1.50;;;29.50;62.70;;;;;;6277471;28;20241;-65
2021/06/27 09:26:54;;;;;;;1.70;1.47;;;29.40;62.50;;;;;;6276890;28;20678;-64
2021/06/27 09:30:14;;;;;;;1.93;1.37;;;29.40;62.00;;;;;;6276600;28;20241;-65
2021/06/27 09:33:21;;;;;;;4.50;2.07;;;29.40;62.30;;;;;;6276997;28;20219;-61
2021/06/27 09:36:25;;;;;;;3.70;2.93;;;29.60;61.10;;;;;;6275603;28;20230;-69
2021/06/27 09:39:30;;;;;;;1.90;1.80;;;29.60;60.20;;;;;;6277133;28;20238;-65
2021/06/27 09:42:33;;;;;;;1.90;1.50;;;29.70;59.40;;;;;;6273737;28;20223;-64
2021/06/27 09:45:46;;;;;;;1.30;1.20;;;29.70;59.80;;;;;;6276768;28;20223;-69
2021/06/27 09:48:53;;;;;;;1.53;1.43;;;29.80;59.60;;;;;;6276299;28;20241;-65
2021/06/27 09:52:01;;;;;;;1.70;1.20;;;29.50;59.30;;;;;;6271007;28;20328;-71
2021/06/27 09:55:09;;;;;;;1.50;1.40;;;29.40;58.50;;;;;;6277193;28;20249;-72
2021/06/27 09:58:16;;;;;;;1.53;1.27;;;29.30;58.10;;;;;;6276790;28;20666;-72
2021/06/27 10:01:23;;;;;;;2.07;1.50;;;29.10;59.70;;;;;;6276781;28;20226;-73
2021/06/27 10:04:33;;;;;;;1.90;1.20;;;29.30;59.80;;;;;;6277466;28;20250;-73
2021/06/27 10:07:39;;;;;;;1.57;1.47;;;29.10;59.00;;;;;;6276578;28;20203;-68
2021/06/27 10:10:43;;;;;;;1.73;1.63;;;29.30;58.60;;;;;;6251602;28;20548;-71
2021/06/27 10:13:48;;;;;;;1.60;1.50;;;29.30;57.20;;;;;;6251869;28;20204;-66
2021/06/27 10:16:53;;;;;;;1.57;1.47;;;29.10;58.40;;;;;;6270872;28;20239;-67
2021/06/27 10:19:58;;;;;;;2.67;1.60;;;29.30;58.80;;;;;;6276196;28;20226;-65
2021/06/27 10:23:02;;;;;;;1.93;1.83;;;29.30;58.90;;;;;;6276369;28;20559;-66
2021/06/27 10:26:06;;;;;;;1.40;1.30;;;29.20;58.80;;;;;;6275975;28;20231;-69
2021/06/27 10:29:11;;;;;;;2.20;2.00;;;29.00;60.20;;;;;;6275428;28;20235;-66
2021/06/27 10:32:15;;;;;;;1.90;1.80;;;29.20;60.70;;;;;;6276161;28;20564;-67
2021/06/27 10:35:20;;;;;;;1.87;1.77;;;29.10;60.50;;;;;;6277452;28;20241;-68
2021/06/27 10:38:28;;;;;;;4.90;2.70;;;29.20;61.60;;;;;;6277339;28;20245;-66
2021/06/27 10:41:54;;;;;;;7.30;2.83;;;29.00;61.80;;;;;;6275952;28;20222;-68
2021/06/27 10:45:00;;;;;;;5.67;3.03;;;29.10;62.50;;;;;;6275827;28;20568;-71
2021/06/27 10:48:23;;;;;;;1.93;1.83;;;29.30;62.00;;;;;;6277511;28;20238;-73
2021/06/27 10:52:00;;;;;;;2.30;2.10;;;29.30;61.20;;;;;;6276494;28;20219;-69
2021/06/27 10:55:26;;;;;;;2.00;1.90;;;28.80;60.30;;;;;;6271185;28;20723;-69
2021/06/27 10:58:37;;;;;;;2.70;2.50;;;28.90;60.80;;;;;;6274038;28;20573;-70
2021/06/27 11:02:13;;;;;;;2.23;2.13;;;29.10;61.40;;;;;;6274957;28;20203;-71
2021/06/27 11:05:39;;;;;;;2.20;2.03;;;29.20;59.90;;;;;;6271628;28;20230;-66
2021/06/27 11:08:47;;;;;;;2.10;1.97;;;29.00;59.20;;;;;;6271020;28;20230;-66
2021/06/27 11:11:54;;;;;;;2.50;2.30;;;29.00;60.50;;;;;;6272426;28;20219;-66
2021/06/27 11:15:15;;;;;;;2.93;2.23;;;29.20;60.50;;;;;;6272557;28;20219;-66
2021/06/27 11:18:31;;;;;;;2.87;2.20;;;29.40;60.80;;;;;;6273094;28;20250;-65
2021/06/27 11:21:37;;;;;;;2.50;2.30;;;29.50;61.80;;;;;;6272516;28;20242;-68
2021/06/27 11:24:42;;;;;;;2.57;2.37;;;29.80;60.50;;;;;;6273179;28;20229;-66
2021/06/27 11:27:46;;;;;;;2.37;2.20;;;29.70;61.20;;;;;;6272576;28;20217;-66
2021/06/27 11:30:51;;;;;;;2.73;2.53;;;29.50;61.60;;;;;;6272158;28;20238;-67
2021/06/27 11:34:22;;;;;;;2.07;1.97;;;29.70;62.00;;;;;;6272334;28;20298;-66
2021/06/27 11:37:46;;;;;;;4.80;3.23;;;30.10;61.00;;;;;;6271927;28;20289;-67
2021/06/27 11:40:52;;;;;;;2.80;2.60;;;30.40;59.40;;;;;;6274254;28;20577;-67
2021/06/27 11:43:59;;;;;;;2.93;2.10;;;30.40;59.10;;;;;;6273330;28;20233;-68
2021/06/27 11:47:22;;;;;;;3.90;2.50;;;30.60;58.90;;;;;;6274335;28;20227;-68
2021/06/27 11:50:27;;;;;;;3.00;2.80;;;30.80;58.80;;;;;;6273619;28;20318;-67
2021/06/27 11:53:31;;;;;;;3.50;3.20;;;30.90;58.50;;;;;;6273901;28;20234;-66
2021/06/27 11:57:01;;;;;;;2.70;2.50;;;31.00;58.70;;;;;;6273178;28;20227;-66
2021/06/27 12:00:07;;;;;;;3.00;2.80;;;30.90;58.50;;;;;;6273703;28;20689;-66
2021/06/27 12:03:12;;;;;;;3.20;2.90;;;30.70;59.00;;;;;;6273887;28;20316;-66
2021/06/27 12:06:16;;;;;;;3.27;3.07;;;30.80;59.70;;;;;;6273741;28;20227;-66
2021/06/27 12:09:37;;;;;;;3.47;3.27;;;30.70;58.60;;;;;;6273332;28;20235;-66
2021/06/27 12:12:44;;;;;;;2.93;2.73;;;30.90;59.90;;;;;;6273911;28;20234;-68
2021/06/27 12:15:50;;;;;;;2.83;2.63;;;30.60;60.50;;;;;;6273205;28;20234;-67
2021/06/27 12:18:58;;;;;;;3.00;2.80;;;30.70;61.00;;;;;;6273232;28;20226;-68
2021/06/27 12:22:01;;;;;;;3.30;3.10;;;30.70;60.80;;;;;;6273560;28;20714;-69
2021/06/27 12:25:06;;;;;;;4.00;3.40;;;30.50;61.70;;;;;;6274289;28;20249;-68
2021/06/27 12:28:13;;;;;;;3.40;3.10;;;30.30;61.70;;;;;;6278311;28;20229;-65
2021/06/27 12:31:19;;;;;;;3.30;3.00;;;30.40;61.30;;;;;;6278709;28;20234;-65
2021/06/27 12:34:22;;;;;;;3.30;3.10;;;29.90;62.80;;;;;;6277997;28;20234;-66
2021/06/27 12:37:28;;;;;;;3.73;3.47;;;29.60;64.50;;;;;;6278268;28;20227;-67
2021/06/27 12:40:32;;;;;;;4.13;3.73;;;29.70;65.40;;;;;;6277809;28;20234;-68
2021/06/27 12:43:42;;;;;;;3.30;2.83;;;29.70;64.70;;;;;;6277820;28;20214;-67
2021/06/27 12:46:49;;;;;;;3.60;3.40;;;29.80;62.30;;;;;;6277594;28;20207;-68
2021/06/27 12:49:52;;;;;;;3.50;3.20;;;30.10;64.10;;;;;;6278198;28;20241;-67
2021/06/27 12:53:05;;;;;;;4.00;3.70;;;30.20;63.90;;;;;;6277840;28;20318;-69
2021/06/27 12:56:09;;;;;;;4.63;3.60;;;30.30;62.80;;;;;;6278141;28;20238;-70
2021/06/27 12:59:13;;;;;;;4.37;3.97;;;30.20;62.90;;;;;;6277547;28;20253;-71
2021/06/27 13:02:18;;;;;;;3.80;3.47;;;29.80;62.80;;;;;;6269472;28;20246;-66
2021/06/27 13:05:22;;;;;;;4.90;4.40;;;29.80;63.50;;;;;;6277438;28;20242;-64
2021/06/27 13:08:26;;;;;;;3.50;3.30;;;30.00;64.70;;;;;;6278213;28;20242;-66
2021/06/27 13:11:29;;;;;;;4.80;3.50;;;30.10;64.80;;;;;;6279021;28;20242;-66
2021/06/27 13:14:34;;;;;;;3.67;3.47;;;30.30;64.00;;;;;;6278456;28;20253;-65
2021/06/27 13:17:42;;;;;;;3.93;3.73;;;30.50;62.50;;;;;;6277635;28;20276;-67
2021/06/27 13:20:48;;;;;;;4.03;3.73;;;30.30;63.40;;;;;;6277122;28;20249;-66
2021/06/27 13:24:03;;;;;;;4.40;4.10;;;30.70;62.20;;;;;;6277625;28;20237;-68
2021/06/27 13:27:11;;;;;;;3.50;3.30;;;30.90;62.20;;;;;;6277217;28;20238;-62
2021/06/27 13:30:17;;;;;;;3.20;3.00;;;31.00;60.70;;;;;;6277242;28;20245;-63
2021/06/27 13:33:21;;;;;;;3.45;3.15;;;31.20;60.30;;;;;;6277096;28;20242;-65
2021/06/27 13:36:27;;;;;;;4.03;3.65;;;31.00;59.50;;;;;;6275434;28;20230;-65
2021/06/27 13:39:31;;;;;;;3.67;3.45;;;30.90;61.00;;;;;;6274127;28;20743;-66
2021/06/27 13:42:34;;;;;;;4.13;3.83;;;31.10;60.80;;;;;;6274454;28;20235;-65
2021/06/27 13:45:38;;;;;;;4.05;3.75;;;31.00;61.30;;;;;;6274783;28;20245;-65
2021/06/27 13:48:43;;;;;;;3.90;3.70;;;31.10;62.30;;;;;;6274664;28;20231;-65
2021/06/27 13:51:46;;;;;;;4.57;4.20;;;30.80;62.40;;;;;;6275552;28;20223;-65
2021/06/27 13:54:49;;;;;;;4.05;3.65;;;30.90;63.00;;;;;;6276491;28;20226;-65
2021/06/27 13:57:52;;;;;;;3.83;3.63;;;31.10;62.80;;;;;;6276300;28;20227;-64
2021/06/27 14:00:57;;;;;;;4.32;3.92;;;31.20;61.70;;;;;;6276855;28;20237;-65
2021/06/27 14:04:04;;;;;;;4.22;3.90;;;30.80;61.40;;;;;;6276178;28;20250;-64
2021/06/27 14:07:07;;;;;;;4.20;3.90;;;30.10;62.90;;;;;;6272207;28;20242;-65
2021/06/27 14:10:12;;;;;;;4.00;3.70;;;30.20;64.50;;;;;;6276057;28;20231;-64
2021/06/27 14:13:15;;;;;;;4.10;3.80;;;30.30;63.60;;;;;;6276257;28;20272;-66
2021/06/27 14:16:20;;;;;;;3.93;3.63;;;30.50;61.40;;;;;;6276120;28;20704;-66
2021/06/27 14:19:24;;;;;;;4.40;4.10;;;30.40;61.70;;;;;;6275810;28;20235;-67
2021/06/27 14:22:27;;;;;;;4.83;4.53;;;30.10;64.40;;;;;;6276138;28;20222;-66
2021/06/27 14:25:30;;;;;;;4.10;3.80;;;29.90;65.40;;;;;;6275643;28;20223;-66
2021/06/27 14:28:34;;;;;;;4.43;4.03;;;30.00;65.00;;;;;;6274954;28;20219;-66
2021/06/27 14:31:39;;;;;;;5.10;4.80;;;30.00;63.90;;;;;;6275284;28;20690;-65
2021/06/27 14:34:42;;;;;;;6.57;4.77;;;30.20;64.60;;;;;;6275615;28;20203;-66
2021/06/27 14:37:45;;;;;;;4.93;4.53;;;30.20;64.90;;;;;;6275233;28;20203;-66
2021/06/27 14:40:49;;;;;;;3.00;2.80;;;29.90;64.20;;;;;;6275774;28;20238;-66
2021/06/27 14:43:52;;;;;;;4.20;3.80;;;30.00;64.50;;;;;;6274975;28;21604;-65
2021/06/27 14:46:57;;;;;;;4.83;3.63;;;30.10;62.80;;;;;;6275457;28;20237;-66
2021/06/27 14:50:01;;;;;;;3.90;3.70;;;30.10;61.90;;;;;;6273944;28;20820;-66
2021/06/27 14:53:06;;;;;;;3.73;3.47;;;30.10;62.00;;;;;;6275409;28;20685;-65
2021/06/27 14:56:09;;;;;;;3.87;3.67;;;29.90;62.00;;;;;;6274878;28;20234;-65
2021/06/27 14:59:14;;;;;;;4.10;3.80;;;29.80;62.60;;;;;;6275226;28;20230;-65
2021/06/27 15:02:18;;;;;;;3.90;3.60;;;29.70;63.10;;;;;;6275286;28;20230;-65
2021/06/27 15:05:21;;;;;;;4.10;3.80;;;29.70;63.00;;;;;;6274916;28;20231;-65
2021/06/27 15:08:25;;;;;;;4.00;3.70;;;29.50;63.70;;;;;;6275019;28;20231;-65
2021/06/27 15:11:28;;;;;;;4.87;4.43;;;29.40;63.90;;;;;;6274502;28;20694;-67
2021/06/27 15:14:31;;;;;;;4.73;4.33;;;29.50;64.70;;;;;;6274590;28;20237;-65
2021/06/27 15:17:36;;;;;;;4.40;4.10;;;29.60;64.10;;;;;;6274731;28;20231;-65
2021/06/27 15:20:40;;;;;;;5.70;4.30;;;29.70;63.20;;;;;;6274694;28;20239;-65
2021/06/27 15:23:43;;;;;;;4.20;3.90;;;29.80;62.70;;;;;;6274314;28;20258;-65
2021/06/27 15:26:46;;;;;;;3.83;3.53;;;30.00;62.50;;;;;;6274830;28;20292;-65
2021/06/27 15:29:50;;;;;;;4.43;4.00;;;29.70;63.60;;;;;;6274339;28;20245;-65
2021/06/27 15:32:55;;;;;;;4.13;3.83;;;29.50;64.00;;;;;;6274434;28;20222;-65
2021/06/27 15:35:58;;;;;;;3.90;3.60;;;29.70;63.80;;;;;;6274367;28;20593;-64
2021/06/27 15:39:04;;;;;;;4.23;3.93;;;29.60;63.80;;;;;;6274450;28;20242;-66
2021/06/27 15:42:07;;;;;;;5.00;4.60;;;29.70;63.90;;;;;;6274055;28;20241;-65
2021/06/27 15:45:12;;;;;;;4.70;4.30;;;29.80;63.40;;;;;;6274469;28;20682;-65
2021/06/27 15:48:16;;;;;;;4.53;4.13;;;29.70;63.50;;;;;;6274398;28;20241;-64
2021/06/27 15:51:20;;;;;;;6.70;4.23;;;29.80;63.60;;;;;;6274303;28;20230;-65
2021/06/27 15:54:24;;;;;;;4.30;4.00;;;29.90;63.00;;;;;;6274069;28;20227;-65
2021/06/27 15:57:27;;;;;;;4.83;4.53;;;30.00;63.00;;;;;;6273909;28;20300;-65
2021/06/27 16:00:31;;;;;;;4.37;3.90;;;30.00;63.20;;;;;;6279160;28;20230;-65
2021/06/27 16:03:36;;;;;;;4.40;4.10;;;30.10;63.50;;;;;;6282301;28;20233;-65
2021/06/27 16:06:39;;;;;;;3.73;3.53;;;30.20;63.00;;;;;;6282360;28;20242;-65